createdAt,value
2022-11-26T00:01:20.409Z,98.21
2022-11-26T00:04:47.219Z,98.24
2022-11-26T00:08:21.702Z,98.22
2022-11-26T00:11:48.525Z,97.94
2022-11-26T00:15:21.901Z,98.06
2022-11-26T00:18:48.718Z,98.23
2022-11-26T00:22:24.704Z,98.09
2022-11-26T00:25:54.943Z,98.04
2022-11-26T00:29:21.635Z,98.08
2022-11-26T00:32:48.460Z,98.10
2022-11-26T00:36:22.423Z,98.18
2022-11-26T00:39:50.103Z,98.16
2022-11-26T00:43:18.929Z,98.35
2022-11-26T00:46:46.136Z,98.30
2022-11-26T00:50:16.870Z,98.34
2022-11-26T00:53:44.696Z,98.42
2022-11-26T00:57:12.714Z,98.53
2022-11-26T01:00:39.389Z,98.52
2022-11-26T01:04:06.792Z,98.42
2022-11-26T01:07:33.604Z,98.56
2022-11-26T01:11:01.781Z,98.61
2022-11-26T01:14:28.709Z,98.56
2022-11-26T01:17:56.267Z,98.55
2022-11-26T01:21:23.743Z,98.78
2022-11-26T01:24:51.501Z,98.83
2022-11-26T01:28:20.008Z,98.76
2022-11-26T01:31:47.303Z,99.04
2022-11-26T01:35:15.599Z,98.72
2022-11-26T01:38:42.295Z,98.91
2022-11-26T01:42:16.604Z,98.69
2022-11-26T01:45:43.724Z,98.72
2022-11-26T01:49:23.904Z,99.02
2022-11-26T01:52:50.705Z,98.92
2022-11-26T01:56:28.373Z,98.88
2022-11-26T01:59:59.296Z,98.95
2022-11-26T02:03:28.211Z,99.01
2022-11-26T02:06:57.908Z,99.08
2022-11-26T02:10:24.717Z,98.97
2022-11-26T02:13:55.859Z,98.74
2022-11-26T02:17:29.841Z,99.10
2022-11-26T02:21:02.070Z,99.09
2022-11-26T02:24:49.597Z,99.22
2022-11-26T02:28:32.488Z,99.30
2022-11-26T02:32:06.999Z,99.32
2022-11-26T02:35:42.513Z,99.36
2022-11-26T02:39:17.092Z,99.40
2022-11-26T02:42:44.139Z,99.30
2022-11-26T02:46:15.650Z,99.34
2022-11-26T02:49:45.607Z,99.36
2022-11-26T02:53:15.089Z,99.33
2022-11-26T02:56:42.678Z,99.41
2022-11-26T03:00:12.004Z,99.50
2022-11-26T03:03:44.206Z,99.40
2022-11-26T03:07:15.010Z,99.45
2022-11-26T03:10:41.875Z,99.27
2022-11-26T03:14:09.151Z,99.45
2022-11-26T03:17:36.282Z,99.29
2022-11-26T03:21:03.225Z,99.48
2022-11-26T03:24:30.610Z,99.50
2022-11-26T03:27:57.352Z,99.28
2022-11-26T03:31:24.987Z,99.42
2022-11-26T03:34:51.786Z,99.52
2022-11-26T03:38:18.960Z,99.67
2022-11-26T03:41:45.908Z,99.57
2022-11-26T03:45:13.886Z,99.40
2022-11-26T03:48:40.937Z,99.52
2022-11-26T03:52:07.955Z,99.51
2022-11-26T03:55:35.001Z,99.57
2022-11-26T03:59:01.874Z,99.53
2022-11-26T04:02:28.854Z,99.62
2022-11-26T04:05:55.765Z,99.69
2022-11-26T04:09:22.938Z,99.80
2022-11-26T04:12:50.059Z,99.79
2022-11-26T04:16:17.120Z,99.75
2022-11-26T04:19:43.814Z,99.69
2022-11-26T04:23:11.246Z,99.63
2022-11-26T04:26:38.070Z,99.69
2022-11-26T04:30:05.374Z,99.80
2022-11-26T04:33:32.150Z,99.83
2022-11-26T04:36:58.899Z,99.87
2022-11-26T04:40:25.781Z,99.75
2022-11-26T04:43:52.510Z,99.83
2022-11-26T04:47:19.134Z,99.80
2022-11-26T04:50:46.221Z,99.85
2022-11-26T04:54:13.926Z,99.90
2022-11-26T04:57:40.843Z,99.80
2022-11-26T05:01:08.051Z,99.81
2022-11-26T05:04:35.280Z,99.65
2022-11-26T05:08:02.023Z,99.76
2022-11-26T05:11:28.783Z,99.80
2022-11-26T05:14:55.527Z,99.98
2022-11-26T05:18:22.360Z,99.92
2022-11-26T05:21:49.432Z,99.91
2022-11-26T05:25:16.624Z,99.99
2022-11-26T05:28:43.950Z,100.00
2022-11-26T05:32:10.686Z,100.00
2022-11-26T05:35:38.906Z,100.00
2022-11-26T05:39:06.536Z,100.00
2022-11-26T05:42:33.178Z,100.00
2022-11-26T05:46:03.837Z,100.00
2022-11-26T05:49:30.785Z,100.00
2022-11-26T05:52:57.426Z,100.00
2022-11-26T05:56:24.083Z,100.00
2022-11-26T05:59:51.445Z,100.00
2022-11-26T06:03:20.356Z,100.00
2022-11-26T06:06:47.492Z,100.00
2022-11-26T06:10:15.446Z,100.00
2022-11-26T06:13:42.525Z,100.00
2022-11-26T06:17:09.279Z,100.00
2022-11-26T06:20:36.151Z,100.00
2022-11-26T06:24:02.839Z,100.00
2022-11-26T06:27:29.528Z,100.00
2022-11-26T06:30:56.180Z,100.00
2022-11-26T06:34:23.131Z,100.00
2022-11-26T06:37:50.173Z,100.00
2022-11-26T06:41:16.897Z,100.00
2022-11-26T06:44:43.620Z,100.00
2022-11-26T06:48:10.327Z,100.00
2022-11-26T06:51:37.037Z,100.00
2022-11-26T06:55:04.094Z,100.00
2022-11-26T06:58:30.836Z,100.00
2022-11-26T07:01:58.378Z,100.00
2022-11-26T07:05:25.358Z,100.00
2022-11-26T07:08:53.985Z,100.00
2022-11-26T07:12:21.114Z,100.00
2022-11-26T07:15:47.912Z,100.00
2022-11-26T07:19:16.486Z,100.00
2022-11-26T07:22:43.226Z,100.00
2022-11-26T07:26:10.951Z,100.00
2022-11-26T07:29:37.710Z,100.00
2022-11-26T07:33:04.349Z,100.00
2022-11-26T07:36:32.013Z,100.00
2022-11-26T07:39:58.740Z,100.00
2022-11-26T07:43:25.513Z,100.00
2022-11-26T07:46:52.374Z,100.00
2022-11-26T07:50:20.085Z,100.00
2022-11-26T07:53:46.910Z,100.00
2022-11-26T07:57:14.240Z,100.00
2022-11-26T08:00:41.073Z,100.00
2022-11-26T08:04:08.733Z,100.00
2022-11-26T08:07:37.228Z,100.00
2022-11-26T08:11:04.735Z,100.00
2022-11-26T08:14:31.356Z,100.00
2022-11-26T08:17:58.471Z,100.00
2022-11-26T08:21:26.296Z,100.00
2022-11-26T08:24:53.227Z,100.00
2022-11-26T08:28:20.382Z,100.00
2022-11-26T08:31:48.894Z,100.00
2022-11-26T08:35:16.526Z,100.00
2022-11-26T08:38:43.705Z,100.00
2022-11-26T08:42:10.728Z,100.00
2022-11-26T08:45:37.422Z,100.00
2022-11-26T08:49:05.046Z,100.00
2022-11-26T08:52:32.164Z,100.00
2022-11-26T08:56:03.376Z,99.99
2022-11-26T08:59:30.022Z,99.98
2022-11-26T09:02:56.808Z,99.96
2022-11-26T09:06:25.974Z,99.53
2022-11-26T09:09:52.566Z,99.43
2022-11-26T09:13:21.188Z,99.47
2022-11-26T09:16:48.831Z,99.20
2022-11-26T09:20:15.942Z,98.83
2022-11-26T09:23:43.088Z,99.12
2022-11-26T09:27:10.942Z,99.23
2022-11-26T09:30:37.789Z,99.35
2022-11-26T09:34:04.845Z,99.34
2022-11-26T09:37:33.658Z,99.86
2022-11-26T09:41:11.656Z,100.00
2022-11-26T09:45:05.348Z,99.92
2022-11-26T09:48:35.037Z,99.37
2022-11-26T09:52:00.797Z,99.17
2022-11-26T09:55:31.449Z,99.55
2022-11-26T09:59:01.898Z,99.70
2022-11-26T10:02:28.881Z,98.98
2022-11-26T10:06:01.733Z,98.79
2022-11-26T10:09:44.173Z,98.34
2022-11-26T10:13:23.437Z,98.14
2022-11-26T10:17:00.737Z,98.29
2022-11-26T10:20:59.279Z,97.80
2022-11-26T10:24:31.238Z,97.95
2022-11-26T10:28:00.237Z,98.42
2022-11-26T10:31:32.529Z,98.56
2022-11-26T10:35:00.249Z,98.57
2022-11-26T10:38:27.280Z,98.60
2022-11-26T10:41:53.937Z,98.41
2022-11-26T10:45:23.555Z,98.52
2022-11-26T10:48:50.314Z,98.59
2022-11-26T10:52:21.382Z,98.59
2022-11-26T10:55:48.450Z,98.50
2022-11-26T10:59:25.030Z,98.67
2022-11-26T11:02:52.148Z,98.66
2022-11-26T11:06:38.293Z,99.27
2022-11-26T11:10:18.046Z,98.81
2022-11-26T11:13:47.126Z,98.63
2022-11-26T11:17:36.376Z,98.76
2022-11-26T11:21:05.001Z,98.91
2022-11-26T11:24:31.975Z,99.02
2022-11-26T11:28:08.976Z,98.67
2022-11-26T11:31:47.840Z,98.36
2022-11-26T11:35:26.812Z,98.08
2022-11-26T11:38:56.800Z,97.73
2022-11-26T11:42:28.358Z,97.55
2022-11-26T11:46:11.079Z,97.41
2022-11-26T11:49:57.284Z,97.32
2022-11-26T11:53:40.425Z,96.76
2022-11-26T11:57:13.826Z,96.88
2022-11-26T12:00:48.663Z,96.80
2022-11-26T12:04:32.330Z,96.84
2022-11-26T12:08:08.565Z,96.74
2022-11-26T12:11:43.281Z,96.89
2022-11-26T12:15:18.199Z,97.05
2022-11-26T12:18:52.530Z,97.04
2022-11-26T12:22:25.489Z,96.87
2022-11-26T12:25:58.401Z,96.26
2022-11-26T12:29:34.764Z,96.19
2022-11-26T12:33:06.511Z,96.27
2022-11-26T12:36:41.273Z,96.66
2022-11-26T12:40:20.631Z,96.57
2022-11-26T12:43:54.381Z,96.69
2022-11-26T12:47:27.290Z,96.70
2022-11-26T12:50:59.877Z,96.18
2022-11-26T12:54:32.182Z,96.42
2022-11-26T12:58:03.204Z,96.26
2022-11-26T13:01:32.100Z,96.19
2022-11-26T13:05:00.111Z,96.00
2022-11-26T13:08:39.866Z,95.74
2022-11-26T13:12:10.852Z,96.07
2022-11-26T13:15:44.089Z,96.13
2022-11-26T13:19:20.009Z,96.12
2022-11-26T13:23:00.988Z,95.78
2022-11-26T13:26:47.037Z,96.34
2022-11-26T13:30:18.633Z,96.35
2022-11-26T13:34:07.843Z,96.53
2022-11-26T13:37:54.918Z,96.34
2022-11-26T13:41:36.486Z,96.36
2022-11-26T13:45:30.403Z,96.18
2022-11-26T13:49:03.605Z,96.26
2022-11-26T13:52:36.938Z,96.43
2022-11-26T13:56:07.565Z,96.38
2022-11-26T13:59:36.878Z,96.41
2022-11-26T14:03:04.681Z,96.28
2022-11-26T14:06:31.916Z,96.11
2022-11-26T14:10:01.199Z,96.15
2022-11-26T14:13:28.608Z,96.21
2022-11-26T14:17:22.332Z,96.18
2022-11-26T14:21:15.234Z,96.40
2022-11-26T14:24:59.728Z,96.53
2022-11-26T14:28:27.966Z,96.56
2022-11-26T14:31:56.405Z,96.52
2022-11-26T14:35:33.616Z,96.67
2022-11-26T14:39:12.941Z,96.73
2022-11-26T14:42:40.943Z,96.47
2022-11-26T14:46:13.286Z,96.46
2022-11-26T14:49:42.829Z,96.57
2022-11-26T14:53:11.866Z,96.71
2022-11-26T14:56:46.145Z,96.79
2022-11-26T15:00:25.849Z,96.82
2022-11-26T15:04:02.098Z,96.92
2022-11-26T15:07:30.281Z,96.98
2022-11-26T15:11:00.125Z,96.79
2022-11-26T15:14:32.484Z,96.68
2022-11-26T15:18:03.398Z,96.80
2022-11-26T15:21:31.021Z,96.80
2022-11-26T15:24:58.278Z,96.76
2022-11-26T15:28:26.108Z,96.71
2022-11-26T15:31:52.737Z,96.67
2022-11-26T15:35:19.756Z,96.68
2022-11-26T15:39:04.068Z,96.57
2022-11-26T15:42:32.468Z,96.83
2022-11-26T15:46:03.488Z,96.97
2022-11-26T15:49:34.139Z,96.91
2022-11-26T15:53:05.641Z,97.03
2022-11-26T15:56:34.953Z,97.01
2022-11-26T16:00:05.293Z,97.01
2022-11-26T16:03:47.852Z,96.97
2022-11-26T16:07:17.889Z,96.94
2022-11-26T16:10:55.343Z,97.05
2022-11-26T16:14:29.768Z,97.22
2022-11-26T16:17:57.039Z,97.35
2022-11-26T16:21:27.851Z,97.46
2022-11-26T16:25:05.372Z,97.47
2022-11-26T16:28:31.959Z,97.38
2022-11-26T16:31:59.041Z,97.33
2022-11-26T16:35:44.811Z,97.44
2022-11-26T16:39:13.783Z,97.49
2022-11-26T16:42:40.580Z,97.39
2022-11-26T16:46:14.779Z,97.67
2022-11-26T16:49:41.491Z,97.80
2022-11-26T16:53:09.312Z,97.50
2022-11-26T16:56:38.361Z,97.59
2022-11-26T17:00:09.694Z,97.94
2022-11-26T17:03:36.617Z,97.93
2022-11-26T17:07:04.022Z,98.06
2022-11-26T17:10:32.262Z,97.91
2022-11-26T17:13:59.197Z,98.10
2022-11-26T17:17:30.483Z,97.99
2022-11-26T17:20:57.876Z,97.91
2022-11-26T17:24:30.002Z,98.08
2022-11-26T17:27:58.960Z,98.21
2022-11-26T17:31:25.850Z,98.01
2022-11-26T17:34:52.645Z,98.01
2022-11-26T17:38:21.362Z,98.08
2022-11-26T17:41:48.064Z,98.13
2022-11-26T17:45:16.082Z,98.07
2022-11-26T17:48:42.900Z,98.03
2022-11-26T17:52:10.043Z,97.98
2022-11-26T17:55:37.064Z,97.90
2022-11-26T17:59:04.429Z,97.76
2022-11-26T18:02:31.407Z,97.81
2022-11-26T18:05:58.305Z,97.87
2022-11-26T18:09:25.767Z,98.00
2022-11-26T18:12:55.393Z,97.87
2022-11-26T18:16:20.741Z,97.67
2022-11-26T18:19:48.245Z,97.92
2022-11-26T18:23:15.269Z,97.95
2022-11-26T18:26:42.511Z,97.87
2022-11-26T18:30:11.245Z,97.84
2022-11-26T18:33:38.095Z,97.84
2022-11-26T18:37:04.921Z,97.90
2022-11-26T18:40:32.156Z,97.76
2022-11-26T18:43:58.935Z,97.79
2022-11-26T18:47:25.815Z,97.83
2022-11-26T18:50:59.847Z,97.82
2022-11-26T18:54:26.965Z,97.71
2022-11-26T18:57:53.683Z,97.88
2022-11-26T19:01:22.636Z,98.01
2022-11-26T19:04:49.449Z,97.83
2022-11-26T19:08:16.868Z,97.79
2022-11-26T19:11:43.786Z,97.91
2022-11-26T19:15:11.632Z,97.66
2022-11-26T19:18:38.736Z,97.74
2022-11-26T19:22:05.576Z,97.47
2022-11-26T19:25:33.274Z,97.67
2022-11-26T19:29:05.059Z,97.69
2022-11-26T19:32:32.345Z,97.74
2022-11-26T19:35:59.556Z,97.93
2022-11-26T19:39:26.540Z,97.81
2022-11-26T19:42:53.265Z,97.96
2022-11-26T19:46:21.770Z,98.13
2022-11-26T19:49:48.865Z,97.92
2022-11-26T19:53:15.683Z,98.13
2022-11-26T19:56:43.083Z,98.09
2022-11-26T20:00:13.964Z,98.24
2022-11-26T20:03:40.801Z,98.20
2022-11-26T20:07:07.683Z,98.22
2022-11-26T20:10:34.528Z,98.33
2022-11-26T20:14:02.393Z,98.48
2022-11-26T20:17:29.563Z,98.57
2022-11-26T20:21:03.750Z,98.75
2022-11-26T20:24:30.530Z,99.24
2022-11-26T20:27:59.888Z,98.97
2022-11-26T20:31:27.353Z,98.99
2022-11-26T20:34:54.204Z,99.05
2022-11-26T20:38:21.095Z,99.10
2022-11-26T20:41:48.292Z,99.19
2022-11-26T20:45:15.496Z,98.92
2022-11-26T20:48:44.057Z,98.94
2022-11-26T20:52:10.793Z,98.75
2022-11-26T20:55:37.445Z,98.96
2022-11-26T20:59:04.670Z,98.90
2022-11-26T21:02:31.777Z,98.82
2022-11-26T21:06:02.245Z,98.99
2022-11-26T21:09:29.289Z,98.75
2022-11-26T21:12:56.584Z,98.81
2022-11-26T21:16:23.606Z,98.67
2022-11-26T21:19:51.627Z,98.91
2022-11-26T21:23:18.626Z,98.71
2022-11-26T21:26:45.499Z,98.87
2022-11-26T21:30:14.081Z,98.71
2022-11-26T21:33:40.786Z,98.81
2022-11-26T21:37:07.653Z,98.72
2022-11-26T21:40:34.837Z,98.69
2022-11-26T21:44:03.696Z,98.57
2022-11-26T21:47:30.707Z,98.63
2022-11-26T21:50:57.440Z,98.56
2022-11-26T21:54:24.274Z,98.73
2022-11-26T21:57:51.085Z,98.66
2022-11-26T22:01:19.631Z,98.77
2022-11-26T22:04:46.632Z,98.88
2022-11-26T22:08:13.694Z,98.73
2022-11-26T22:11:42.480Z,98.86
2022-11-26T22:15:10.940Z,98.76
2022-11-26T22:18:39.318Z,98.81
2022-11-26T22:22:06.353Z,98.87
2022-11-26T22:25:34.808Z,98.75
2022-11-26T22:29:02.389Z,98.79
2022-11-26T22:32:29.864Z,98.92
2022-11-26T22:35:56.478Z,99.01
2022-11-26T22:39:23.404Z,99.07
2022-11-26T22:42:50.190Z,98.92
2022-11-26T22:46:18.865Z,98.91
2022-11-26T22:49:45.588Z,99.14
2022-11-26T22:53:12.390Z,99.09
2022-11-26T22:56:40.048Z,98.98
2022-11-26T23:00:10.834Z,99.13
2022-11-26T23:03:38.632Z,99.12
2022-11-26T23:07:05.609Z,99.15
2022-11-26T23:10:32.551Z,99.05
2022-11-26T23:13:59.389Z,99.17
2022-11-26T23:17:26.276Z,98.89
2022-11-26T23:21:02.305Z,98.81
2022-11-26T23:24:30.104Z,99.02
2022-11-26T23:27:57.173Z,99.09
2022-11-26T23:31:25.933Z,98.97
2022-11-26T23:34:52.867Z,98.92
2022-11-26T23:38:19.672Z,99.04
2022-11-26T23:41:46.417Z,99.12
2022-11-26T23:45:13.678Z,99.14
2022-11-26T23:48:40.464Z,99.06
2022-11-26T23:52:07.394Z,98.91
2022-11-26T23:55:34.386Z,98.99
2022-11-26T23:59:03.066Z,98.84
